Falcon Field


Codes: KFFZ/MSC
Name: Falcon Field
City: Mesa
Country: United States
Elevation: 1394 ft.
Website:
Wikipedia:

Photos at Falcon Field


   Photos courtesy of SpottingLog. You can add your own sightings and photos by signing up for a free trial today.



No photos found.

Weather at Falcon Field


Time (UTC)DescriptionTempratureWindCloud coverageVisibilityPressureHumidity
19-Apr-2024 06:00Scattered Clouds26°C4 mph, N33%10000m1010hPa17%
19-Apr-2024 09:00Broken Clouds25°C4 mph, NW67%10000m1009hPa16%
19-Apr-2024 12:00Broken Clouds22°C2 mph, N54%10000m1009hPa18%
19-Apr-2024 15:00Clear Sky24°C2 mph, N4%10000m1011hPa15%
19-Apr-2024 18:00Clear Sky29°C4 mph, SW3%10000m1010hPa11%
19-Apr-2024 21:00Few Clouds32°C9 mph, SW13%10000m1007hPa8%
20-Apr-2024 00:00Clear Sky33°C7 mph, W7%10000m1005hPa7%
20-Apr-2024 03:00Clear Sky29°C11 mph, W0%10000m1006hPa10%
20-Apr-2024 06:00Clear Sky25°C7 mph, S0%10000m1008hPa15%
20-Apr-2024 09:00Clear Sky22°C9 mph, SE0%10000m1010hPa26%
20-Apr-2024 12:00Clear Sky20°C4 mph, SE0%10000m1011hPa23%
20-Apr-2024 15:00Clear Sky23°C4 mph, SE0%10000m1013hPa18%
20-Apr-2024 18:00Clear Sky27°C4 mph, S0%10000m1013hPa17%
20-Apr-2024 21:00Clear Sky30°C9 mph, SW0%10000m1012hPa12%
21-Apr-2024 00:00Clear Sky31°C7 mph, NW0%10000m1010hPa11%
21-Apr-2024 03:00Clear Sky28°C2 mph, NW0%10000m1011hPa16%
21-Apr-2024 06:00Clear Sky26°C0 mph, NW0%10000m1012hPa19%
21-Apr-2024 09:00Clear Sky24°C4 mph, NE2%10000m1012hPa19%
21-Apr-2024 12:00Scattered Clouds22°C4 mph, NE41%10000m1012hPa23%
21-Apr-2024 15:00Overcast Clouds25°C4 mph, NE100%10000m1013hPa20%
21-Apr-2024 18:00Overcast Clouds30°C2 mph, SW100%10000m1012hPa14%
21-Apr-2024 21:00Overcast Clouds32°C7 mph, SW100%10000m1010hPa12%
22-Apr-2024 00:00Broken Clouds33°C4 mph, SW68%10000m1007hPa11%
22-Apr-2024 03:00Clear Sky29°C4 mph, E1%10000m1008hPa14%
22-Apr-2024 06:00Clear Sky27°C2 mph, NE1%10000m1008hPa17%
22-Apr-2024 09:00Clear Sky25°C7 mph, NW0%10000m1008hPa18%
22-Apr-2024 12:00Clear Sky23°C2 mph, NW0%10000m1008hPa22%
22-Apr-2024 15:00Clear Sky26°C2 mph, E0%10000m1009hPa17%
22-Apr-2024 18:00Clear Sky30°C4 mph, SW0%10000m1009hPa13%
22-Apr-2024 21:00Clear Sky33°C7 mph, SW0%10000m1006hPa11%
23-Apr-2024 00:00Clear Sky33°C4 mph, SW3%10000m1004hPa10%
23-Apr-2024 03:00Scattered Clouds29°C2 mph, N50%10000m1005hPa13%
23-Apr-2024 06:00Scattered Clouds27°C9 mph, W34%10000m1007hPa13%
23-Apr-2024 09:00Clear Sky24°C7 mph, SE1%10000m1008hPa19%
23-Apr-2024 12:00Clear Sky22°C7 mph, SE0%10000m1009hPa23%
23-Apr-2024 15:00Clear Sky25°C4 mph, SE0%10000m1010hPa19%
23-Apr-2024 18:00Clear Sky29°C9 mph, SW0%10000m1011hPa14%
23-Apr-2024 21:00Clear Sky31°C9 mph, SW0%10000m1009hPa10%
24-Apr-2024 00:00Clear Sky33°C7 mph, SW0%10000m1007hPa8%
24-Apr-2024 03:00Clear Sky29°C16 mph, SW0%10000m1009hPa15%